Happy Valentine's Day! 

Flight Track Log - Related Links

Times and Time Zones

All times are in EDT time to prevent confusion due to time zone crossing. See the EJA727 flight status page for this flight to view local times or setup timezone preferences in your user account.


Time Position Orientation Groundspeed Altitude Reporting Facility
EDT Latitude Longitude Course Direction KTS MPH feet Rate Location/Type
Wed 09:18:49 AM 29.6356 -95.2675 136° Southeast 167 192 600  Level Houston Center
Wed 09:20:22 AM 29.5661 -95.1906 136° Southeast 269 310 5,900 3,469 Climbing Houston Center
Wed 09:21:16 AM 29.5894 -95.1119 71° East 300 345 9,100 3,268 Climbing Houston Center
Wed 09:22:25 AM 29.6086 -95.0089 78° East 306 352 12,600 2,656 Climbing Houston Center
Wed 09:23:27 AM 29.6289 -94.8917 79° East 370 426 14,900 2,419 Climbing Houston Center
Wed 09:24:29 AM 29.6497 -94.7672 79° East 393 452 17,600 2,341 Climbing Houston Center
Wed 09:25:30 AM 29.6722 -94.6350 79° East 419 482 19,700 2,341 Climbing Houston Center
Wed 09:26:32 AM 29.7000 -94.4700 79° East 438 504 22,400 2,274 Climbing Houston Center
Wed 09:27:34 AM 29.7206 -94.3258 81° East 455 524 24,400 1,756 Climbing Houston Center
Wed 09:28:35 AM 29.7019 -94.1742 98° East 477 549 26,000 1,561 Climbing Houston Center
Wed 09:29:37 AM 29.6872 -94.0028 96° East 500 575 27,600 1,512 Climbing Houston Center
Wed 09:30:38 AM 29.6853 -93.8419 91° East 506 582 29,100 1,463 Climbing Houston Center
Wed 09:31:40 AM 29.6831 -93.6836 91° East 501 577 30,600 1,355 Climbing Houston Center
Wed 09:32:42 AM 29.6817 -93.5225 91° East 505 581 31,900 1,122 Climbing Houston Center
Wed 09:33:43 AM 29.6792 -93.3625 91° East 506 582 32,900 976 Climbing Houston Center
Wed 09:34:45 AM 29.6767 -93.2014 91° East 507 583 33,900 1,073 Climbing Houston Center
Wed 09:35:46 AM 29.6519 -93.0117 98° East 502 578 35,100 1,073 Climbing Houston Center
Wed 09:36:48 AM 29.6247 -92.8553 101° East 502 578 36,100 968 Climbing Houston Center
Wed 09:37:50 AM 29.5956 -92.7011 102° East 497 572 37,100 976 Climbing Houston Center
Wed 09:38:51 AM 29.5658 -92.5461 102° East 498 573 38,100 927 Climbing Houston Center
Wed 09:39:53 AM 29.5367 -92.3939 102° East 493 567 39,000 435 Climbing Houston Center
Wed 09:40:55 AM 29.5069 -92.2408 103° East 492 566 39,000  Level Houston Center
Wed 09:41:56 AM 29.4772 -92.0861 102° East 496 571 39,000  Level Houston Center
Wed 09:42:58 AM 29.4417 -91.9028 103° East 493 567 39,000  Level Houston Center
Wed 09:44:00 AM 29.4117 -91.7508 103° East 492 566 39,000  Level Houston Center
Wed 09:45:01 AM 29.3842 -91.6072 102° East 491 565 39,000  Level Houston Center
Wed 09:46:03 AM 29.3539 -91.4544 103° East 493 567 39,000  Level Houston Center
Wed 09:47:05 AM 29.3242 -91.3028 103° East 490 564 39,000  Level Houston Center
Wed 09:48:07 AM 29.2875 -91.1203 103° East 491 565 39,000  Level Houston Center
Wed 09:49:08 AM 29.2567 -90.9681 103° East 492 566 39,000 49 Level Houston Center
Wed 09:50:10 AM 29.2253 -90.8158 103° East 494 568 39,100 290 Climbing Houston Center
Wed 09:51:12 AM 29.1939 -90.6639 103° East 494 568 39,600 484 Climbing Houston Center
Wed 09:52:14 AM 29.1633 -90.5139 103° East 489 563 40,100 484 Climbing Houston Center
Wed 09:53:16 AM 29.1325 -90.3639 103° East 487 560 40,600 439 Climbing Houston Center
Wed 09:54:17 AM 29.0936 -90.1842 104° East 487 560 41,000 146 Climbing Houston Center
Wed 09:55:19 AM 29.0625 -90.0350 103° East 485 558 40,900  Descending Houston Center
Wed 09:56:21 AM 29.0211 -89.8900 108° East 483 556 41,000 48 Climbing Houston Center
Wed 09:57:23 AM 28.9719 -89.7506 112° Southeast 476 548 41,000  Level Houston Center
Wed 09:58:24 AM 28.9219 -89.6147 113° Southeast 469 540 41,000  Level Houston Center
Wed 09:59:26 AM 28.8886 -89.4717 105° East 476 548 41,000  Level Houston Center
Wed 10:00:28 AM 28.8553 -89.2956 102° East 474 545 41,000  Level Houston Center
Wed 10:01:30 AM 28.8258 -89.1472 103° East 478 550 41,000  Level Houston Center
Wed 10:02:32 AM 28.7964 -89.0000 103° East 478 550 41,000  Level Houston Center
Wed 10:04:00 AM 28.7934 -88.7939 104° East  Level FlightAware Approximate
Wed 10:04:35 AM 28.7383 -88.7078 104° East 472 543 41,000  Level Houston Center
Wed 10:05:37 AM 28.7081 -88.5636 103° East 470 541 41,000  Level Houston Center
Wed 10:06:39 AM 28.6731 -88.3897 103° East 472 543 41,000  Level Houston Center
Wed 10:07:41 AM 28.6428 -88.2428 103° East 475 547 41,000  Level Houston Center
Wed 10:08:43 AM 28.6125 -88.0989 103° East 471 542 41,000  Level Houston Center
Wed 10:09:44 AM 28.5800 -87.9406 103° East 474 545 41,000  Level Houston Center
Wed 10:10:47 AM 28.5494 -87.7944 103° East 475 547 41,000  Level Houston Center
Wed 10:11:48 AM 28.5192 -87.6492 103° East 475 547 41,000  Level Houston Center
Wed 10:12:50 AM 28.4875 -87.5019 104° East 480 552 41,000 -48 Level Houston Center
Wed 10:13:52 AM 28.4569 -87.3564 103° East 476 548 40,900  Descending Houston Center
Wed 10:14:53 AM 28.4250 -87.2089 104° East 480 552 41,000 49 Climbing Houston Center
Wed 10:15:55 AM 28.3872 -87.0311 104° East 482 555 41,000  Level Houston Center
Wed 10:17:04 AM 28.3531 -86.8831 105° East 479 551 41,000  Level Jacksonville Center
Wed 10:18:04 AM 28.3219 -86.7358 103° East 478 550 41,000  Level Jacksonville Center
Wed 10:19:04 AM 28.2822 -86.5953 108° East 473 544 41,000  Level Jacksonville Center
Wed 10:20:04 AM 28.2406 -86.4525 108° East 473 544 41,000  Level Jacksonville Center
Wed 10:21:04 AM 28.1967 -86.3025 108° East 478 550 41,000  Level Jacksonville Center
Wed 10:22:04 AM 28.1564 -86.1669 109° East 478 550 41,000  Level Jacksonville Center
Wed 10:23:04 AM 28.1119 -86.0197 109° East 478 550 41,000  Level Jacksonville Center
Wed 10:24:04 AM 28.0694 -85.8772 109° East 472 543 41,000  Level Jacksonville Center
Wed 10:25:04 AM 28.0267 -85.7350 109° East 472 543 41,000 -31 Level Jacksonville Center
Wed 10:27:16 AM 27.9286 -85.4161 109° East 472 543 40,900  Descending Miami Center
Wed 10:28:16 AM 27.8892 -85.2747 107° East 477 549 41,000 50 Climbing Miami Center
Wed 10:29:16 AM 27.8583 -85.1250 103° East 477 549 41,000  Level Miami Center
Wed 10:30:16 AM 27.8333 -84.9800 101° East 477 549 41,000  Level Miami Center
Wed 10:31:16 AM 27.8081 -84.8353 101° East 477 549 41,000  Level Miami Center
Wed 10:32:16 AM 27.7828 -84.6883 101° East 477 549 41,000  Level Miami Center
Wed 10:33:16 AM 27.7594 -84.5414 100° East 477 549 41,000  Level Miami Center
Wed 10:34:16 AM 27.7336 -84.3967 101° East 472 543 41,000  Level Miami Center
Wed 10:35:16 AM 27.7122 -84.2500 99° East 472 543 41,000  Level Miami Center
Wed 10:36:16 AM 27.6822 -84.1006 103° East 472 543 41,000  Level Miami Center
Wed 10:37:16 AM 27.6583 -83.9492 100° East 477 549 41,000  Level Miami Center
Wed 10:38:16 AM 27.6283 -83.7975 103° East 483 556 41,000  Level Miami Center
Wed 10:39:16 AM 27.6000 -83.6483 102° East 490 564 41,000  Level Miami Center
Wed 10:40:16 AM 27.5675 -83.4944 103° East 490 564 41,000  Level Miami Center
Wed 10:41:16 AM 27.5389 -83.3428 102° East 490 564 41,000  Level Miami Center
Wed 10:42:16 AM 27.5122 -83.1917 101° East 490 564 41,000  Level Miami Center
Wed 10:43:16 AM 27.4814 -83.0403 103° East 490 564 41,000  Level Miami Center
Wed 10:44:16 AM 27.4542 -82.8914 102° East 495 570 41,000  Level Miami Center
Wed 10:45:16 AM 27.4194 -82.7214 103° East 495 570 41,000  Level Miami Center
Wed 10:46:16 AM 27.3881 -82.5725 103° East 495 570 41,000  Level Miami Center
Wed 10:47:16 AM 27.3564 -82.4214 103° East 490 564 41,000  Level Miami Center
Wed 10:48:16 AM 27.3322 -82.2847 101° East 497 572 41,000  Level Miami Center
Wed 10:49:16 AM 27.2967 -82.1172 103° East 497 572 41,000  Level Miami Center
Wed 10:50:16 AM 27.2667 -81.9686 103° East 491 565 41,000  Level Miami Center
Wed 10:51:16 AM 27.2361 -81.8203 103° East 491 565 41,000  Level Miami Center
Wed 10:52:16 AM 27.2075 -81.6836 103° East 496 571 41,000  Level Miami Center
Wed 10:53:16 AM 27.1769 -81.5353 103° East 496 571 41,000  Level Miami Center
Wed 10:54:16 AM 27.1461 -81.3872 103° East 491 565 41,000  Level Miami Center
Wed 10:55:16 AM 27.1117 -81.2200 103° East 496 571 41,000  Level Miami Center
Wed 10:56:16 AM 27.0783 -81.0697 104° East 496 571 41,000  Level Miami Center
Wed 10:57:16 AM 27.0469 -80.9239 104° East 490 564 41,000  Level Miami Center
Wed 10:58:16 AM 27.0158 -80.7736 103° East 485 558 41,000  Level Miami Center
Wed 10:59:16 AM 26.9842 -80.6281 104° East 485 558 41,000  Level Miami Center
Wed 11:00:16 AM 26.9522 -80.4803 104° East 485 558 41,000  Level Miami Center
Wed 11:01:16 AM 26.9183 -80.3303 104° East 491 565 41,000  Level Miami Center
Wed 11:02:16 AM 26.8864 -80.1825 104° East 491 565 41,000  Level Miami Center
Wed 11:03:16 AM 26.8564 -80.0328 103° East 496 571 41,000  Level Miami Center
Wed 11:04:16 AM 26.8239 -79.8853 104° East 490 564 41,000  Level Miami Center
Wed 11:05:16 AM 26.7914 -79.7400 104° East 490 564 41,000 -300 Level Miami Center
Wed 11:06:16 AM 26.7567 -79.5903 105° East 490 564 40,400 -1,450 Descending Miami Center
Wed 11:07:16 AM 26.7239 -79.4453 104° East 490 564 38,100 -2,050 Descending Miami Center
Wed 11:08:16 AM 26.7008 -79.3308 103° East 479 551 36,300 -2,300 Descending Miami Center
Wed 11:09:16 AM 26.6678 -79.1767 103° East 467 537 33,500 -2,700 Descending Miami Center
Wed 11:10:16 AM 26.6469 -79.0344 99° East 462 532 30,900 -2,300 Descending Miami Center
Wed 11:11:16 AM 26.6364 -78.8950 95° East 462 532 28,900 -1,550 Descending Miami Center
Wed 11:12:16 AM 26.6258 -78.7553 95° East 449 517 27,800 -1,200 Descending Miami Center
Wed 11:13:16 AM 26.6131 -78.6017 95° East 454 522 26,500 -1,250 Descending Miami Center
Wed 11:14:16 AM 26.6061 -78.4761 94° East 449 517 25,300 -1,100 Descending Miami Center
Wed 11:15:16 AM 26.5994 -78.3342 93° East 450 518 24,300 -1,450 Descending Miami Center
Wed 11:16:16 AM 26.5903 -78.1947 94° East 450 518 22,400 -2,250 Descending Miami Center
Wed 11:17:16 AM 26.5831 -78.0600 93° East 437 503 19,800 -2,750 Descending Miami Center
Wed 11:18:16 AM 26.5714 -77.9553 97° East 395 455 16,900 -3,050 Descending Miami Center
Wed 11:19:16 AM 26.5636 -77.8436 94° East 367 422 13,700 -3,000 Descending Miami Center
Wed 11:20:16 AM 26.5561 -77.7461 95° East 343 395 10,900 -2,350 Descending Miami Center
Wed 11:21:16 AM 26.5522 -77.6556 93° East 313 360 9,000 -1,750 Descending Miami Center
Wed 11:22:16 AM 26.5464 -77.5717 94° East 280 322 7,400 -1,000 Descending Miami Center
Wed 11:23:16 AM 26.5386 -77.4672 95° East 280 322 7,000 -400 Descending Miami Center

Login

Don't have an account? Register now (free) for customized features, flight alerts, and more!